Time;durP1;ratioP1;P1;durP2;ratioP2;P2;SDS_P1;SDS_P2;PMS_P1;PMS_P2;Temp;Humidity;BMP_temperature;BMP_pressure;BME280_temperature;BME280_humidity;BME280_pressure;Samples;Min_cycle;Max_cycle;Signal;HPM_P1;HPM_P2
2022/03/09 00:00:43;;;;;;;13.38;3.60;;;3.40;50.90;;;;;;6276870;28;20104;-81
2022/03/09 00:03:44;;;;;;;6.13;3.20;;;3.30;51.00;;;;;;6274571;28;20095;-81
2022/03/09 00:06:46;;;;;;;11.10;4.65;;;3.30;51.20;;;;;;6274938;28;20088;-81
2022/03/09 00:09:49;;;;;;;8.55;4.20;;;3.30;51.30;;;;;;6277499;28;20045;-81
2022/03/09 00:12:52;;;;;;;7.97;4.20;;;3.20;51.40;;;;;;6299179;28;20052;-81
2022/03/09 00:15:54;;;;;;;9.27;4.05;;;3.30;51.40;;;;;;6290835;28;20045;-82
2022/03/09 00:18:56;;;;;;;8.02;3.67;;;3.30;51.50;;;;;;6280459;28;20112;-81
2022/03/09 00:21:58;;;;;;;9.48;4.78;;;3.30;51.40;;;;;;6278963;28;20047;-81
2022/03/09 00:25:02;;;;;;;8.48;4.63;;;3.30;51.40;;;;;;6278340;28;20202;-81
2022/03/09 00:28:04;;;;;;;12.40;3.53;;;3.30;51.40;;;;;;6278095;28;20041;-81
2022/03/09 00:31:06;;;;;;;8.15;4.13;;;3.30;51.70;;;;;;6278224;28;20190;-80
2022/03/09 00:34:08;;;;;;;9.25;3.97;;;3.30;51.50;;;;;;6278952;28;20053;-80
2022/03/09 00:37:09;;;;;;;9.88;5.00;;;3.40;51.40;;;;;;6275968;28;20599;-80
2022/03/09 00:40:13;;;;;;;9.65;4.03;;;3.40;51.50;;;;;;6276163;28;20045;-79
2022/03/09 00:43:15;;;;;;;9.55;3.70;;;3.40;51.40;;;;;;6276659;28;20045;-81
2022/03/09 00:46:16;;;;;;;9.38;3.70;;;3.30;51.70;;;;;;6276997;28;20053;-81
2022/03/09 00:49:18;;;;;;;11.63;3.08;;;3.20;52.30;;;;;;6276110;28;20109;-79
2022/03/09 00:52:20;;;;;;;9.05;3.95;;;3.20;52.20;;;;;;6276415;28;20088;-80
2022/03/09 00:55:23;;;;;;;9.20;3.75;;;3.10;52.30;;;;;;6275362;28;20218;-81
2022/03/09 00:58:25;;;;;;;6.88;4.10;;;3.00;52.80;;;;;;6248766;28;20072;-82
2022/03/09 01:01:27;;;;;;;9.82;5.00;;;2.90;53.20;;;;;;6276083;28;20544;-83
2022/03/09 01:04:29;;;;;;;8.75;4.57;;;2.70;54.30;;;;;;6278248;28;20047;-83
2022/03/09 01:07:30;;;;;;;6.45;3.63;;;2.60;53.90;;;;;;6278255;28;20053;-82
2022/03/09 01:10:34;;;;;;;9.30;4.13;;;2.50;54.40;;;;;;6278435;28;20045;-83
2022/03/09 01:13:35;;;;;;;15.05;5.13;;;2.30;54.70;;;;;;6278475;28;20481;-83
2022/03/09 01:16:37;;;;;;;10.68;4.57;;;2.20;55.00;;;;;;6277805;28;20055;-82
2022/03/09 01:19:39;;;;;;;10.85;4.78;;;2.00;55.60;;;;;;6269787;28;20114;-81
2022/03/09 01:22:41;;;;;;;12.10;5.70;;;1.90;56.40;;;;;;6254660;28;20046;-83
2022/03/09 01:25:45;;;;;;;8.38;3.55;;;1.80;56.90;;;;;;6253320;28;20064;-83
2022/03/09 01:28:46;;;;;;;8.25;4.82;;;1.70;56.90;;;;;;6253319;28;20491;-82
2022/03/09 01:31:48;;;;;;;7.82;4.30;;;1.50;57.80;;;;;;6253324;28;20041;-82
2022/03/09 01:34:50;;;;;;;10.00;4.45;;;1.40;58.10;;;;;;6254775;28;20080;-82
2022/03/09 01:37:52;;;;;;;10.15;3.83;;;1.30;57.90;;;;;;6254700;28;20060;-81
2022/03/09 01:40:55;;;;;;;13.00;4.13;;;1.20;58.80;;;;;;6256354;28;20045;-82
2022/03/09 01:44:11;;;;;;;10.20;4.60;;;1.10;58.60;;;;;;6256823;28;20128;-82
2022/03/09 01:47:13;;;;;;;14.15;4.93;;;1.00;59.00;;;;;;6254717;28;20053;-82
2022/03/09 01:50:15;;;;;;;12.77;6.18;;;0.90;59.80;;;;;;6261291;28;20120;-81
2022/03/09 01:53:18;;;;;;;11.90;5.82;;;0.80;59.80;;;;;;6266933;28;20065;-82
2022/03/09 01:56:22;;;;;;;7.63;4.30;;;0.70;60.10;;;;;;6252765;28;20050;-81
2022/03/09 01:59:24;;;;;;;12.98;4.63;;;0.60;60.00;;;;;;6248803;28;20171;-81
2022/03/09 02:02:26;;;;;;;7.78;3.65;;;0.60;60.50;;;;;;6248269;28;20053;-80
2022/03/09 02:05:28;;;;;;;7.80;3.97;;;0.50;60.60;;;;;;6247498;28;20045;-81
2022/03/09 02:11:52;;;;;;;9.98;4.50;;;0.40;61.00;;;;;;6247307;28;20128;-81
2022/03/09 02:14:55;;;;;;;10.00;4.65;;;0.30;61.10;;;;;;6247419;28;20049;-81
2022/03/09 02:17:59;;;;;;;9.13;4.20;;;0.20;62.40;;;;;;6286786;22;20076;-81
2022/03/09 02:21:03;;;;;;;10.48;4.05;;;0.20;62.80;;;;;;6268964;28;20076;-80
2022/03/09 02:24:07;;;;;;;15.25;4.63;;;0.10;62.60;;;;;;6266912;28;20113;-82
2022/03/09 02:27:09;;;;;;;14.20;4.55;;;0.10;62.90;;;;;;6268424;28;20084;-80
2022/03/09 02:30:14;;;;;;;10.80;4.07;;;0.00;62.70;;;;;;6268196;28;20099;-81
2022/03/09 02:33:15;;;;;;;8.25;3.78;;;0.00;63.20;;;;;;6268538;28;20056;-80
2022/03/09 02:36:20;;;;;;;9.77;3.67;;;-0.10;63.40;;;;;;6267854;28;20481;-80
2022/03/09 02:39:23;;;;;;;17.55;4.60;;;-0.10;63.80;;;;;;6268782;28;20053;-80
2022/03/09 02:42:25;;;;;;;8.38;3.13;;;-0.10;63.70;;;;;;6268632;28;20109;-80
2022/03/09 02:45:26;;;;;;;9.40;4.60;;;-0.10;64.60;;;;;;6267631;28;20059;-81
2022/03/09 02:48:28;;;;;;;12.60;4.10;;;-0.20;64.50;;;;;;6272973;28;20119;-81
2022/03/09 02:51:30;;;;;;;11.32;5.30;;;-0.20;64.90;;;;;;6272815;28;20045;-80
2022/03/09 02:54:33;;;;;;;12.48;4.50;;;-0.20;65.90;;;;;;6272351;28;20422;-80
2022/03/09 02:57:35;;;;;;;17.40;4.43;;;-0.30;66.60;;;;;;6272972;28;20076;-81
2022/03/09 03:00:37;;;;;;;12.50;4.55;;;-0.30;67.90;;;;;;6273869;28;20117;-80
2022/03/09 03:03:38;;;;;;;9.23;4.30;;;-0.40;68.20;;;;;;6272497;28;20055;-80
2022/03/09 03:06:40;;;;;;;11.18;5.03;;;-0.40;68.10;;;;;;6272411;28;20076;-81
2022/03/09 03:09:43;;;;;;;9.23;3.83;;;-0.40;68.20;;;;;;6271861;28;20073;-81
2022/03/09 03:12:45;;;;;;;17.67;4.85;;;-0.40;68.20;;;;;;6272295;28;20047;-81
2022/03/09 03:15:47;;;;;;;10.80;4.13;;;-0.50;68.30;;;;;;6270530;28;20084;-81
2022/03/09 03:18:48;;;;;;;8.35;3.92;;;-0.50;68.50;;;;;;6269148;28;20245;-81
2022/03/09 03:21:50;;;;;;;7.18;3.78;;;-0.50;67.90;;;;;;6269220;28;20101;-80
2022/03/09 03:24:53;;;;;;;14.95;4.85;;;-0.50;67.80;;;;;;6269416;28;20077;-80
2022/03/09 03:27:55;;;;;;;9.05;3.63;;;-0.60;67.70;;;;;;6267426;28;20109;-79
2022/03/09 03:30:57;;;;;;;11.60;4.15;;;-0.70;68.80;;;;;;6271157;28;20059;-80
2022/03/09 03:33:59;;;;;;;7.65;4.13;;;-0.70;68.10;;;;;;6270349;28;20489;-81
2022/03/09 03:37:01;;;;;;;9.63;3.65;;;-0.70;68.30;;;;;;6267214;28;20053;-80
2022/03/09 03:40:05;;;;;;;9.00;3.78;;;-0.80;68.10;;;;;;6266398;28;20113;-79
2022/03/09 03:43:07;;;;;;;9.82;4.25;;;-0.80;68.30;;;;;;6267080;28;20042;-79
2022/03/09 03:46:08;;;;;;;11.60;3.83;;;-0.90;68.80;;;;;;6267165;28;20119;-79
2022/03/09 03:49:10;;;;;;;11.95;5.00;;;-0.90;69.80;;;;;;6268262;28;20102;-80
2022/03/09 03:52:12;;;;;;;11.60;4.00;;;-0.90;69.50;;;;;;6266357;28;20043;-79
2022/03/09 03:55:15;;;;;;;8.25;3.85;;;-1.00;69.20;;;;;;6266922;28;20076;-82
2022/03/09 03:58:17;;;;;;;10.75;4.90;;;-1.10;69.60;;;;;;6266408;28;20076;-80
2022/03/09 04:01:19;;;;;;;8.45;3.88;;;-1.10;70.60;;;;;;6269022;28;20053;-80
2022/03/09 04:04:21;;;;;;;10.32;4.25;;;-1.10;71.00;;;;;;6268210;28;20068;-80
2022/03/09 04:07:22;;;;;;;9.05;4.40;;;-1.10;70.60;;;;;;6270065;28;20060;-81
2022/03/09 04:10:26;;;;;;;13.25;4.30;;;-1.10;70.80;;;;;;6270334;28;20132;-81
2022/03/09 04:13:27;;;;;;;11.10;5.78;;;-1.20;70.50;;;;;;6268600;28;20124;-80
2022/03/09 04:16:29;;;;;;;11.88;4.90;;;-1.20;70.20;;;;;;6267817;28;20109;-80
2022/03/09 04:19:31;;;;;;;10.38;3.83;;;-1.30;69.90;;;;;;6269191;28;20119;-80
2022/03/09 04:22:36;;;;;;;10.50;3.97;;;-1.30;69.90;;;;;;6270284;28;20132;-80
2022/03/09 04:25:40;;;;;;;13.55;4.45;;;-1.40;70.30;;;;;;6267264;28;20041;-80
2022/03/09 04:28:41;;;;;;;17.70;4.15;;;-1.40;71.20;;;;;;6269208;28;20068;-80
2022/03/09 04:31:43;;;;;;;10.82;4.60;;;-1.40;72.60;;;;;;6269910;28;20049;-81
2022/03/09 04:34:45;;;;;;;16.42;4.38;;;-1.50;73.10;;;;;;6269183;28;20045;-81
2022/03/09 04:37:47;;;;;;;9.77;4.45;;;-1.50;73.50;;;;;;6269712;28;20045;-81
2022/03/09 04:40:50;;;;;;;7.82;3.58;;;-1.50;73.30;;;;;;6268154;28;20045;-80
2022/03/09 04:43:52;;;;;;;8.20;4.80;;;-1.50;73.60;;;;;;6268311;28;20049;-80
2022/03/09 04:46:53;;;;;;;10.48;4.43;;;-1.50;74.30;;;;;;6264476;28;20049;-80
2022/03/09 04:49:55;;;;;;;9.27;4.57;;;-1.50;74.40;;;;;;6263184;28;20533;-80
2022/03/09 04:52:57;;;;;;;9.00;4.65;;;-1.50;74.20;;;;;;6265004;28;20128;-80
2022/03/09 04:56:00;;;;;;;9.98;4.35;;;-1.60;74.60;;;;;;6262918;28;20107;-80
2022/03/09 04:59:02;;;;;;;11.50;4.45;;;-1.60;74.70;;;;;;6263262;28;20113;-81
2022/03/09 05:02:04;;;;;;;14.95;4.38;;;-1.60;75.40;;;;;;6264452;28;20049;-80
2022/03/09 05:05:07;;;;;;;9.38;4.68;;;-1.60;74.80;;;;;;6264112;28;20476;-80
2022/03/09 05:08:09;;;;;;;7.82;4.15;;;-1.70;75.10;;;;;;6264764;28;20055;-80
2022/03/09 05:11:13;;;;;;;10.10;4.07;;;-1.70;74.60;;;;;;6264328;28;20052;-80
2022/03/09 05:14:14;;;;;;;13.88;5.90;;;-1.80;75.10;;;;;;6266208;28;20140;-80
2022/03/09 05:17:20;;;;;;;11.10;4.25;;;-1.80;74.60;;;;;;6264384;28;20105;-81
2022/03/09 05:20:22;;;;;;;10.85;4.50;;;-1.80;75.20;;;;;;6264772;28;20056;-80
2022/03/09 05:23:23;;;;;;;11.55;4.13;;;-1.80;75.00;;;;;;6265262;28;20049;-79
2022/03/09 05:26:27;;;;;;;14.00;5.65;;;-1.80;75.60;;;;;;6263576;28;20411;-79
2022/03/09 05:29:28;;;;;;;16.60;4.68;;;-1.80;76.30;;;;;;6266447;28;20125;-79
2022/03/09 05:32:30;;;;;;;12.00;5.35;;;-1.80;76.30;;;;;;6267481;28;20133;-80
2022/03/09 05:35:32;;;;;;;6.35;3.90;;;-1.80;76.20;;;;;;6263738;28;20045;-79
2022/03/09 05:38:34;;;;;;;10.50;5.30;;;-1.80;76.80;;;;;;6263821;28;20110;-80
2022/03/09 05:41:37;;;;;;;9.35;3.80;;;-1.90;76.30;;;;;;6264225;28;20049;-80
2022/03/09 05:44:38;;;;;;;10.82;4.30;;;-1.90;75.80;;;;;;6263217;28;20049;-80
2022/03/09 05:47:40;;;;;;;12.05;4.32;;;-1.80;75.60;;;;;;6259367;28;20040;-79
2022/03/09 05:50:42;;;;;;;11.57;4.57;;;-1.90;75.50;;;;;;6259720;28;20073;-79
2022/03/09 05:53:44;;;;;;;9.50;4.72;;;-1.90;75.60;;;;;;6256408;28;20042;-78
2022/03/09 05:56:47;;;;;;;14.75;5.60;;;-1.90;75.70;;;;;;6258230;28;20055;-79
2022/03/09 05:59:50;;;;;;;8.57;4.88;;;-1.90;76.20;;;;;;6263960;28;20052;-79
2022/03/09 06:02:51;;;;;;;11.25;4.70;;;-1.90;76.40;;;;;;6260358;28;20152;-79
2022/03/09 06:05:53;;;;;;;10.52;5.07;;;-1.90;76.70;;;;;;6256684;28;20042;-79
2022/03/09 06:08:55;;;;;;;12.80;5.60;;;-1.90;77.30;;;;;;6259213;28;20055;-79
2022/03/09 06:11:58;;;;;;;11.30;4.38;;;-1.90;77.70;;;;;;6257128;28;20045;-79
2022/03/09 06:15:00;;;;;;;11.70;5.35;;;-1.90;77.00;;;;;;6258385;28;20060;-79
2022/03/09 06:18:02;;;;;;;16.08;5.40;;;-1.80;77.70;;;;;;6261961;28;20041;-79
2022/03/09 06:21:04;;;;;;;17.65;5.50;;;-1.80;77.30;;;;;;6260640;28;20072;-79
2022/03/09 06:24:06;;;;;;;10.32;6.30;;;-1.70;77.70;;;;;;6263683;28;20047;-79
2022/03/09 06:27:09;;;;;;;19.67;6.35;;;-1.70;77.60;;;;;;6261118;28;20084;-79
2022/03/09 06:30:12;;;;;;;25.35;6.03;;;-1.60;77.20;;;;;;6262734;28;20053;-79
2022/03/09 06:33:14;;;;;;;15.43;4.47;;;-1.50;78.30;;;;;;6261064;28;20046;-79
2022/03/09 06:36:17;;;;;;;30.23;6.35;;;-1.40;77.40;;;;;;6259634;28;20056;-79
2022/03/09 06:39:20;;;;;;;13.07;5.35;;;-1.30;77.00;;;;;;6262045;28;20060;-78
2022/03/09 06:42:23;;;;;;;15.13;6.28;;;-1.20;76.80;;;;;;6261039;28;20123;-79
2022/03/09 06:45:25;;;;;;;37.60;11.20;;;-1.10;76.70;;;;;;6262274;28;20053;-79
2022/03/09 06:48:27;;;;;;;14.93;6.47;;;-1.00;76.30;;;;;;6260569;28;20053;-79
2022/03/09 06:51:30;;;;;;;17.00;6.97;;;-0.80;76.00;;;;;;6269010;28;20091;-79
2022/03/09 06:54:32;;;;;;;18.10;6.38;;;-0.70;75.90;;;;;;6263137;28;20660;-79
2022/03/09 06:57:36;;;;;;;26.60;6.78;;;-0.50;76.40;;;;;;6261489;28;20558;-79
2022/03/09 07:00:38;;;;;;;16.48;4.80;;;-0.20;76.90;;;;;;6265041;28;20051;-79
2022/03/09 07:03:40;;;;;;;15.73;7.32;;;0.10;75.70;;;;;;6264105;28;20444;-79
2022/03/09 07:06:42;;;;;;;15.95;6.20;;;0.40;75.00;;;;;;6263464;28;20059;-79
2022/03/09 07:09:44;;;;;;;15.98;6.13;;;0.70;74.20;;;;;;6263308;28;20053;-79
2022/03/09 07:12:47;;;;;;;21.13;6.60;;;1.10;73.70;;;;;;6261938;28;20046;-80
2022/03/09 07:15:49;;;;;;;13.23;5.72;;;1.40;72.70;;;;;;6263457;28;20556;-80
2022/03/09 07:18:51;;;;;;;17.27;7.35;;;1.80;71.70;;;;;;6265849;28;20470;-80
2022/03/09 07:21:53;;;;;;;13.38;5.32;;;2.10;70.60;;;;;;6268308;28;20033;-80
2022/03/09 07:24:55;;;;;;;17.20;6.70;;;2.50;69.80;;;;;;6265364;28;20132;-80
2022/03/09 07:27:58;;;;;;;18.88;8.05;;;2.90;68.90;;;;;;6264522;28;20043;-80
2022/03/09 07:31:00;;;;;;;14.48;6.68;;;3.20;68.30;;;;;;6274517;28;20054;-80
2022/03/09 07:34:02;;;;;;;14.90;6.38;;;3.70;67.50;;;;;;6265880;28;20105;-80
2022/03/09 07:37:04;;;;;;;17.75;7.60;;;4.10;66.10;;;;;;6267804;28;20053;-81
2022/03/09 07:40:08;;;;;;;11.70;5.93;;;4.50;64.70;;;;;;6268946;28;20121;-81
2022/03/09 07:43:11;;;;;;;14.68;6.40;;;5.00;63.20;;;;;;6268438;28;20041;-81
2022/03/09 07:46:13;;;;;;;12.88;5.95;;;5.50;61.90;;;;;;6267377;28;20085;-81
2022/03/09 07:49:15;;;;;;;17.38;6.55;;;6.00;60.00;;;;;;6266240;28;20056;-81
2022/03/09 07:52:17;;;;;;;13.07;5.13;;;6.50;58.40;;;;;;6264593;28;20045;-81
2022/03/09 07:55:19;;;;;;;13.93;6.18;;;7.10;56.50;;;;;;6263967;28;20045;-81
2022/03/09 07:58:23;;;;;;;13.98;7.55;;;7.80;54.10;;;;;;6266184;28;20054;-81
2022/03/09 08:01:25;;;;;;;20.90;7.57;;;9.00;51.60;;;;;;6266927;28;20141;-81
2022/03/09 08:04:27;;;;;;;15.13;7.05;;;10.30;47.20;;;;;;6267705;28;20049;-82
2022/03/09 08:07:28;;;;;;;12.63;6.35;;;11.80;43.90;;;;;;6263559;28;20489;-82
2022/03/09 08:10:30;;;;;;;14.98;6.07;;;13.10;40.90;;;;;;6265654;28;20207;-82
2022/03/09 08:13:34;;;;;;;13.02;6.55;;;14.20;38.80;;;;;;6264190;28;20042;-82
2022/03/09 08:16:36;;;;;;;16.63;7.03;;;15.20;36.30;;;;;;6261645;28;20103;-82
2022/03/09 08:19:37;;;;;;;12.15;6.82;;;16.00;34.90;;;;;;6252182;28;20045;-81
2022/03/09 08:22:41;;;;;;;17.63;7.47;;;16.60;33.70;;;;;;6252056;28;20055;-82
2022/03/09 08:25:43;;;;;;;16.80;6.75;;;16.80;32.80;;;;;;6250847;28;20521;-82
2022/03/09 08:28:46;;;;;;;18.52;8.45;;;16.60;32.90;;;;;;6251465;28;20418;-81
2022/03/09 08:31:48;;;;;;;13.35;7.45;;;16.10;33.10;;;;;;6250690;28;20041;-83
2022/03/09 08:34:50;;;;;;;13.93;7.00;;;15.60;34.10;;;;;;6251293;28;20438;-82
2022/03/09 08:37:52;;;;;;;19.10;7.28;;;15.50;34.30;;;;;;6250496;28;20057;-81
2022/03/09 08:40:54;;;;;;;18.55;7.68;;;15.90;33.90;;;;;;6250576;28;20092;-81
2022/03/09 08:43:57;;;;;;;15.82;7.07;;;17.10;32.70;;;;;;6250174;28;20049;-82
2022/03/09 08:46:59;;;;;;;17.98;7.32;;;18.30;30.90;;;;;;6250112;28;20491;-82
2022/03/09 08:50:01;;;;;;;41.90;10.10;;;19.30;29.60;;;;;;6250670;28;20051;-82
2022/03/09 08:53:03;;;;;;;18.95;8.40;;;20.00;28.60;;;;;;6250284;28;20054;-82
2022/03/09 08:56:07;;;;;;;17.98;8.07;;;20.60;28.10;;;;;;6250458;28;20045;-82
2022/03/09 08:59:10;;;;;;;12.88;7.53;;;21.10;27.40;;;;;;6251497;28;20045;-82
2022/03/09 09:02:12;;;;;;;16.98;8.07;;;21.50;27.30;;;;;;6250794;28;20049;-82
2022/03/09 09:05:14;;;;;;;16.17;8.18;;;21.90;27.00;;;;;;6249998;28;20080;-82
2022/03/09 09:08:15;;;;;;;17.10;7.70;;;22.10;27.00;;;;;;6249987;28;20109;-82
2022/03/09 09:11:17;;;;;;;13.07;5.47;;;22.30;28.50;;;;;;6250289;28;20049;-82
2022/03/09 09:14:21;;;;;;;22.98;6.80;;;22.40;28.90;;;;;;6250407;28;20184;-81
2022/03/09 09:17:22;;;;;;;18.70;6.88;;;22.70;28.10;;;;;;6249079;28;20507;-82
2022/03/09 09:20:25;;;;;;;18.75;6.95;;;22.90;28.50;;;;;;6199677;28;20041;-82
2022/03/09 09:23:27;;;;;;;11.68;7.32;;;23.10;26.60;;;;;;6259636;28;20515;-83
2022/03/09 09:26:29;;;;;;;13.40;6.95;;;23.10;26.00;;;;;;6252342;28;20521;-83
2022/03/09 09:29:32;;;;;;;12.52;7.03;;;23.10;25.10;;;;;;6251795;28;20124;-83
2022/03/09 09:32:33;;;;;;;20.90;7.10;;;23.00;24.90;;;;;;6249309;28;20053;-82
2022/03/09 09:35:36;;;;;;;14.93;7.53;;;22.70;25.30;;;;;;6248874;28;20137;-83
2022/03/09 09:38:38;;;;;;;17.02;7.20;;;22.10;25.00;;;;;;6249879;28;20064;-83
2022/03/09 09:41:40;;;;;;;7.97;5.57;;;21.30;25.40;;;;;;6249285;28;20069;-82
2022/03/09 09:44:44;;;;;;;22.60;7.18;;;20.30;25.60;;;;;;6248377;28;20095;-81
2022/03/09 09:47:46;;;;;;;11.18;6.25;;;19.40;26.40;;;;;;6248925;28;20161;-81
2022/03/09 09:50:51;;;;;;;15.05;7.35;;;18.60;27.00;;;;;;6249605;28;20050;-83
2022/03/09 09:53:52;;;;;;;13.43;6.95;;;18.10;27.30;;;;;;6249398;28;20132;-81
2022/03/09 09:56:54;;;;;;;13.68;7.13;;;17.70;27.80;;;;;;6247453;28;20050;-82
2022/03/09 09:59:58;;;;;;;13.73;7.63;;;17.60;28.00;;;;;;6249001;28;20047;-83
2022/03/09 10:03:00;;;;;;;15.43;6.63;;;17.50;27.90;;;;;;6249383;28;20098;-83
2022/03/09 10:06:02;;;;;;;15.07;7.40;;;17.50;27.80;;;;;;6248151;28;20051;-81
2022/03/09 10:09:05;;;;;;;15.73;6.68;;;17.40;28.00;;;;;;6249120;28;20526;-82
2022/03/09 10:12:09;;;;;;;12.32;6.55;;;17.50;28.20;;;;;;6249237;28;20525;-81
2022/03/09 10:15:16;;;;;;;15.40;7.28;;;17.60;27.60;;;;;;6249552;28;20060;-82
2022/03/09 10:18:20;;;;;;;18.20;7.65;;;17.70;27.60;;;;;;6250271;28;20059;-82
2022/03/09 10:21:25;;;;;;;14.35;8.07;;;17.90;27.80;;;;;;6248942;28;20046;-82
2022/03/09 10:24:36;;;;;;;10.93;6.55;;;18.10;28.00;;;;;;6248741;28;20045;-82
2022/03/09 10:27:41;;;;;;;20.50;8.52;;;18.20;27.30;;;;;;6248346;28;20046;-80
2022/03/09 10:30:44;;;;;;;28.65;10.05;;;18.20;27.60;;;;;;6249084;28;20058;-81
2022/03/09 10:33:46;;;;;;;21.92;7.95;;;18.40;27.70;;;;;;6247811;28;20091;-80
2022/03/09 10:36:56;;;;;;;18.45;7.28;;;18.70;27.60;;;;;;6248585;28;20383;-81
2022/03/09 10:40:09;;;;;;;19.92;7.00;;;18.80;27.70;;;;;;6248507;28;20052;-81
2022/03/09 10:43:13;;;;;;;13.32;7.25;;;19.00;27.20;;;;;;6248609;28;20049;-81
2022/03/09 10:46:18;;;;;;;12.48;6.90;;;19.10;26.60;;;;;;6247691;28;20479;-82
2022/03/09 10:49:25;;;;;;;14.75;7.40;;;18.90;26.80;;;;;;6248071;28;20045;-81
2022/03/09 10:52:42;;;;;;;13.70;6.88;;;18.80;27.40;;;;;;6249284;28;20056;-81
2022/03/09 10:55:44;;;;;;;19.63;8.27;;;19.00;27.30;;;;;;6246563;28;20049;-81
2022/03/09 10:58:46;;;;;;;12.07;7.03;;;19.10;27.70;;;;;;6248864;28;20109;-81
2022/03/09 11:02:06;;;;;;;19.42;7.57;;;19.30;27.20;;;;;;6247388;28;20127;-82
2022/03/09 11:05:10;;;;;;;14.70;7.20;;;19.60;27.00;;;;;;6248232;28;20037;-82
2022/03/09 11:08:12;;;;;;;17.90;7.50;;;19.90;26.50;;;;;;6251376;28;20563;-82
2022/03/09 11:11:15;;;;;;;15.32;6.60;;;20.00;26.50;;;;;;6252600;28;20491;-81
2022/03/09 11:14:18;;;;;;;15.75;8.45;;;20.20;26.40;;;;;;6252996;28;20499;-82
2022/03/09 11:17:23;;;;;;;15.55;8.25;;;20.10;26.00;;;;;;6251418;28;20125;-82
2022/03/09 11:20:25;;;;;;;14.13;7.35;;;20.00;26.10;;;;;;6252228;28;20219;-82
2022/03/09 11:23:28;;;;;;;14.60;7.53;;;20.10;26.70;;;;;;6252150;28;20049;-81
2022/03/09 11:26:32;;;;;;;13.05;7.28;;;20.10;26.00;;;;;;6252691;28;20042;-81
2022/03/09 11:29:36;;;;;;;18.80;8.85;;;20.20;25.90;;;;;;6251552;28;20438;-81
2022/03/09 11:32:39;;;;;;;19.35;9.13;;;20.40;26.00;;;;;;6252722;28;20054;-82
2022/03/09 11:35:44;;;;;;;16.35;8.18;;;20.60;25.80;;;;;;6252124;28;20083;-81
2022/03/09 11:38:50;;;;;;;12.07;7.45;;;20.80;25.50;;;;;;6252578;28;20049;-81
2022/03/09 11:42:31;;;;;;;16.17;9.77;;;21.10;24.90;;;;;;6257482;28;20053;-82
2022/03/09 11:45:33;;;;;;;21.23;8.60;;;21.30;24.80;;;;;;6227296;28;20060;-82
2022/03/09 11:48:51;;;;;;;18.98;10.18;;;21.50;24.60;;;;;;6227342;28;20134;-82
2022/03/09 11:52:06;;;;;;;28.42;11.35;;;21.80;24.10;;;;;;6227122;28;20061;-81
2022/03/09 11:55:18;;;;;;;21.40;9.88;;;22.00;23.90;;;;;;6246645;28;20479;-81
2022/03/09 11:58:20;;;;;;;18.05;11.38;;;22.20;23.70;;;;;;6252146;28;20195;-82
2022/03/09 12:01:22;;;;;;;18.02;10.05;;;22.20;23.60;;;;;;6251338;28;20041;-82
2022/03/09 12:04:59;;;;;;;17.63;10.18;;;22.50;23.50;;;;;;6251369;28;20053;-82
2022/03/09 12:08:03;;;;;;;17.38;10.77;;;22.60;23.50;;;;;;6247222;28;20053;-81
2022/03/09 12:11:05;;;;;;;23.58;12.27;;;22.80;23.60;;;;;;6252441;28;20054;-82
2022/03/09 12:14:07;;;;;;;19.60;10.80;;;23.00;23.70;;;;;;6260306;28;20048;-82
2022/03/09 12:17:08;;;;;;;16.88;10.07;;;23.20;23.40;;;;;;6255719;28;20046;-82
2022/03/09 12:20:19;;;;;;;17.33;11.55;;;23.30;23.30;;;;;;6249106;28;20124;-83
2022/03/09 12:23:24;;;;;;;15.18;10.85;;;23.50;23.40;;;;;;6250002;28;20139;-82
2022/03/09 12:26:38;;;;;;;21.17;11.57;;;23.50;23.10;;;;;;6250147;28;20065;-82
2022/03/09 12:29:40;;;;;;;19.08;11.02;;;23.60;22.90;;;;;;6250381;28;20049;-83
2022/03/09 12:32:42;;;;;;;16.02;9.70;;;23.70;23.00;;;;;;6250985;28;20053;-82
2022/03/09 12:35:45;;;;;;;19.00;12.10;;;23.80;23.00;;;;;;6249258;28;20068;-82
2022/03/09 12:38:49;;;;;;;20.77;11.43;;;23.80;22.80;;;;;;6250634;28;20046;-81
2022/03/09 12:41:52;;;;;;;17.65;10.60;;;23.80;22.90;;;;;;6249458;28;20056;-82
2022/03/09 12:44:58;;;;;;;18.50;10.75;;;23.90;23.00;;;;;;6249753;28;20053;-82
2022/03/09 12:48:01;;;;;;;14.83;9.37;;;23.80;22.90;;;;;;6249882;28;20053;-82
2022/03/09 12:51:05;;;;;;;16.52;9.95;;;23.80;23.00;;;;;;6249779;28;20304;-81
2022/03/09 12:54:07;;;;;;;19.13;9.98;;;23.70;23.00;;;;;;6249887;28;20057;-83
2022/03/09 12:57:14;;;;;;;17.30;11.52;;;23.10;22.90;;;;;;6250445;28;20046;-83
2022/03/09 13:00:17;;;;;;;17.05;9.75;;;22.80;23.40;;;;;;6250419;28;20041;-83
2022/03/09 13:03:19;;;;;;;17.60;9.77;;;22.90;23.10;;;;;;6250282;28;20103;-81
2022/03/09 13:06:26;;;;;;;19.00;9.30;;;23.00;23.10;;;;;;6248550;28;20561;-83
2022/03/09 13:09:30;;;;;;;18.90;11.38;;;23.00;23.10;;;;;;6248578;28;20076;-82
2022/03/09 13:12:38;;;;;;;28.52;12.23;;;22.70;23.50;;;;;;6251520;28;20045;-82
2022/03/09 13:15:42;;;;;;;20.20;10.03;;;22.70;23.10;;;;;;6216742;28;1018164;-83
2022/03/09 13:18:43;;;;;;;22.23;11.80;;;22.20;23.60;;;;;;6252518;28;20124;-82
2022/03/09 13:21:49;;;;;;;17.15;9.40;;;22.20;24.10;;;;;;6251200;28;20045;-82
2022/03/09 13:25:00;;;;;;;27.08;12.88;;;22.30;23.70;;;;;;6249722;28;20046;-82
2022/03/09 13:28:05;;;;;;;99.40;31.13;;;22.40;23.00;;;;;;6249848;28;20068;-82
2022/03/09 13:31:07;;;;;;;54.45;18.88;;;22.20;23.40;;;;;;6248688;28;20113;-82
2022/03/09 13:34:14;;;;;;;33.13;15.43;;;22.30;23.50;;;;;;6233273;28;20132;-80
2022/03/09 13:37:20;;;;;;;19.35;10.75;;;22.50;23.00;;;;;;6248927;28;20514;-80
2022/03/09 13:40:22;;;;;;;21.73;10.10;;;22.10;23.40;;;;;;6250102;28;20057;-80
2022/03/09 13:43:26;;;;;;;18.13;9.98;;;21.90;23.20;;;;;;6251226;28;20041;-80
2022/03/09 13:46:28;;;;;;;18.55;10.75;;;21.80;23.70;;;;;;6250982;28;20046;-80
2022/03/09 13:49:42;;;;;;;21.02;10.02;;;22.00;23.50;;;;;;6251903;28;20057;-80
2022/03/09 13:52:46;;;;;;;17.63;10.10;;;21.90;23.30;;;;;;6256591;28;20064;-80
2022/03/09 13:55:50;;;;;;;17.88;9.63;;;21.70;23.40;;;;;;6256833;28;20574;-80
2022/03/09 13:58:52;;;;;;;16.15;9.38;;;21.10;23.50;;;;;;6252833;28;20082;-80
2022/03/09 14:01:54;;;;;;;18.15;9.80;;;20.80;24.10;;;;;;6249601;28;20045;-80
2022/03/09 14:04:57;;;;;;;17.48;9.43;;;20.70;24.20;;;;;;6249137;28;20499;-80
2022/03/09 14:08:01;;;;;;;15.40;9.80;;;20.90;24.40;;;;;;6250112;28;20054;-80
2022/03/09 14:11:08;;;;;;;22.08;8.07;;;21.20;24.10;;;;;;6250036;28;20751;-80
2022/03/09 14:14:13;;;;;;;16.17;9.48;;;21.50;24.00;;;;;;6250255;28;20491;-81
2022/03/09 14:17:15;;;;;;;16.45;10.73;;;21.80;23.80;;;;;;6233047;28;20577;-81
2022/03/09 14:20:18;;;;;;;18.65;9.70;;;21.50;23.60;;;;;;6261743;22;20029;-80
2022/03/09 14:23:22;;;;;;;19.58;9.63;;;21.20;24.00;;;;;;6275789;28;20092;-80
2022/03/09 14:26:24;;;;;;;20.35;9.93;;;21.30;24.20;;;;;;6277901;28;20052;-81
2022/03/09 14:29:27;;;;;;;19.75;8.38;;;21.40;23.80;;;;;;6275584;28;20041;-80
2022/03/09 14:32:28;;;;;;;20.75;9.50;;;21.00;23.90;;;;;;6275431;28;20056;-83
2022/03/09 14:35:31;;;;;;;17.15;9.55;;;20.70;24.10;;;;;;6277478;28;20115;-82
2022/03/09 14:38:35;;;;;;;16.98;9.23;;;20.70;24.60;;;;;;6278216;28;20048;-85
2022/03/09 14:41:38;;;;;;;18.88;9.80;;;21.10;24.50;;;;;;6277464;28;20083;-82
2022/03/09 14:44:39;;;;;;;20.70;10.77;;;21.30;23.80;;;;;;6282020;28;20112;-81
2022/03/09 14:47:41;;;;;;;16.38;8.65;;;20.80;23.90;;;;;;6283024;28;20103;-81
2022/03/09 14:50:44;;;;;;;18.40;9.93;;;20.30;24.60;;;;;;6282858;28;20052;-82
2022/03/09 14:53:47;;;;;;;16.45;9.07;;;20.30;24.80;;;;;;6281234;28;20068;-81
2022/03/09 14:57:01;;;;;;;20.63;10.02;;;20.20;24.50;;;;;;6280391;28;20048;-85
2022/03/09 15:00:06;;;;;;;18.20;9.65;;;20.10;25.00;;;;;;6277565;28;20482;-81
2022/03/09 15:03:07;;;;;;;18.27;9.00;;;20.30;24.70;;;;;;6290359;28;20056;-83
2022/03/09 15:06:09;;;;;;;18.63;9.13;;;20.50;24.80;;;;;;6283417;28;20144;-83
2022/03/09 15:09:13;;;;;;;15.18;9.10;;;20.60;24.80;;;;;;6282854;28;20052;-84
2022/03/09 15:12:14;;;;;;;13.85;9.18;;;20.90;25.00;;;;;;6282713;28;20049;-82
2022/03/09 15:15:16;;;;;;;17.13;8.23;;;21.30;24.80;;;;;;6287206;28;20049;-86
2022/03/09 15:18:22;;;;;;;19.02;11.75;;;21.90;24.50;;;;;;6277074;28;20049;-87
2022/03/09 15:21:24;;;;;;;14.55;8.20;;;22.50;24.10;;;;;;6283333;28;20037;-84
2022/03/09 15:24:27;;;;;;;16.95;7.68;;;22.70;23.50;;;;;;6283119;28;20108;-83
2022/03/09 15:27:29;;;;;;;14.65;8.50;;;22.60;23.60;;;;;;6281378;28;20051;-83
2022/03/09 15:30:31;;;;;;;14.25;8.18;;;22.30;23.30;;;;;;6282293;28;20520;-84
2022/03/09 15:33:33;;;;;;;13.35;8.18;;;21.70;23.80;;;;;;6282866;28;20044;-82
2022/03/09 15:36:35;;;;;;;17.05;9.13;;;21.30;23.90;;;;;;6282643;28;20052;-82
2022/03/09 15:39:38;;;;;;;15.63;7.82;;;21.10;24.00;;;;;;6289486;28;20109;-83
2022/03/09 15:42:40;;;;;;;16.65;9.88;;;20.80;24.30;;;;;;6292887;28;20049;-84
2022/03/09 15:45:42;;;;;;;17.52;9.40;;;20.50;24.60;;;;;;6288422;28;20064;-83
2022/03/09 15:48:43;;;;;;;15.57;8.85;;;20.10;24.80;;;;;;6270042;28;20495;-83